• Join FlightAware (Why Join?)
  • Login
  • US Flag 
08:46PM EST


 

Airport Tracker/Info


-or-


 

Live Flight TrackerFlight Track Log ✈ N400PU ✈ 26-Oct-2013 ✈ KORL - KLAF

Flight Track Log - Related Links

Times and Time Zones

All times are in EDT time to prevent confusion due to time zone crossing. See the N400PU flight status page for this flight to view local times or setup timezone preferences in your user account.

Time Position Orientation Groundspeed Altitude Reporting Facility
EDT Latitude Longitude Course Direction KTS MPH feet Rate Location/Type
07:56AM 28.5500 -81.3167 41° Northeast 207 238 600  Level Orlando TRACON
07:57AM 28.5833 -81.2833 41° Northeast 205 236 1,500 720 Climbing Orlando TRACON
07:58AM 28.6167 -81.2500 41° Northeast 198 228 2,000 840 Climbing Orlando TRACON
07:59AM 28.6833 -81.2667 348° North 207 238 3,300 1,620 Climbing Orlando TRACON
08:00AM 28.7333 -81.2667 360° North 197 227 5,300 2,220 Climbing Orlando TRACON
08:01AM 28.8000 -81.2833 348° North 213 245 7,800 2,220 Climbing Orlando TRACON
08:02AM 28.8500 -81.3167 330° Northwest 254 292 9,800 1,860 Climbing Orlando TRACON
08:03AM 28.9128 -81.3414 341° North 279 321 11,400 1,980 Climbing Jacksonville Center
08:04AM 28.9883 -81.3733 340° North 279 321 13,600 2,100 Climbing Jacksonville Center
08:05AM 29.0719 -81.3886 351° North 289 333 15,700 1,860 Climbing Jacksonville Center
08:06AM 29.1536 -81.4114 346° North 294 338 17,400 1,560 Climbing Jacksonville Center
08:07AM 29.2458 -81.4383 346° North 301 346 18,900 1,680 Climbing Jacksonville Center
08:08AM 29.3336 -81.4608 347° North 307 353 20,800 1,800 Climbing Jacksonville Center
08:09AM 29.4194 -81.4811 348° North 312 359 22,500 1,680 Climbing Jacksonville Center
08:10AM 29.5075 -81.5039 347° North 318 366 24,200 1,800 Climbing Jacksonville Center
08:11AM 29.5994 -81.5286 347° North 324 373 26,100 1,860 Climbing Jacksonville Center
08:12AM 29.6894 -81.5514 348° North 329 379 28,000 1,680 Climbing Jacksonville Center
08:13AM 29.7775 -81.5717 349° North 329 379 29,500 1,320 Climbing Jacksonville Center
08:14AM 29.8653 -81.5944 347° North 329 379 30,700 1,140 Climbing Jacksonville Center
08:15AM 29.9511 -81.6172 347° North 329 379 31,800 1,020 Climbing Jacksonville Center
08:16AM 30.0411 -81.6425 346° North 334 384 32,800 960 Climbing Jacksonville Center
08:17AM 30.1353 -81.6653 348° North 334 384 33,800 900 Climbing Jacksonville Center
08:18AM 30.2294 -81.6881 348° North 339 390 34,700 600 Climbing Jacksonville Center
08:19AM 30.3278 -81.7133 347° North 344 396 35,000 120 Climbing Jacksonville Center
08:20AM 30.4306 -81.7411 347° North 356 410 35,000  Level Jacksonville Center
08:21AM 30.5372 -81.7711 346° North 379 436 35,000  Level Jacksonville Center
08:22AM 30.6522 -81.8058 345° North 402 463 35,000  Level Jacksonville Center
08:23AM 30.7550 -81.8531 338° Northwest 402 463 35,000  Level Jacksonville Center
08:24AM 30.8369 -81.9272 322° Northwest 379 436 35,000  Level Jacksonville Center
08:25AM 30.9189 -82.0014 322° Northwest 379 436 35,000  Level Jacksonville Center
08:26AM 31.0072 -82.0758 324° Northwest 379 436 35,000  Level Jacksonville Center
08:27AM 31.0911 -82.1478 324° Northwest 385 443 35,000  Level Jacksonville Center
08:28AM 31.1939 -82.2028 335° Northwest 390 449 35,000  Level Jacksonville Center
08:29AM 31.2964 -82.2483 339° North 390 449 35,000  Level Jacksonville Center
08:30AM 31.4008 -82.2939 340° North 395 455 35,000  Level Jacksonville Center
08:31AM 31.5181 -82.3394 342° North 387 445 35,000 120 Level Jacksonville Center
08:32AM 31.6186 -82.3850 339° North 392 451 35,300 720 Climbing Jacksonville Center
08:33AM 31.7125 -82.4311 337° Northwest 385 443 36,500 480 Climbing Jacksonville Center
08:35AM 31.9461 -82.5408 338° Northwest 374 430 37,000 120 Climbing Atlanta Center
08:36AM 32.0489 -82.5833 341° North 379 436 37,000  Level Atlanta Center
08:37AM 32.1561 -82.6331 339° North 391 450 37,000  Level Atlanta Center
08:38AM 32.2589 -82.6806 339° North 391 450 37,000  Level Atlanta Center
08:39AM 32.3617 -82.7306 338° Northwest 396 456 37,000  Level Atlanta Center
08:40AM 32.4644 -82.7733 341° North 396 456 37,000  Level Atlanta Center
08:41AM 32.5631 -82.8214 338° Northwest 396 456 37,000  Level Atlanta Center
08:42AM 32.6678 -82.8717 338° Northwest 396 456 37,000  Level Atlanta Center
08:43AM 32.7725 -82.9197 339° North 396 456 37,000  Level Atlanta Center
08:44AM 32.8753 -82.9653 340° North 396 456 37,000  Level Atlanta Center
08:45AM 32.9781 -83.0161 337° Northwest 396 456 37,000  Level Atlanta Center
08:46AM 33.0786 -83.0619 339° North 396 456 37,000  Level Atlanta Center
08:47AM 33.1792 -83.1106 338° Northwest 396 456 37,000  Level Atlanta Center
08:48AM 33.2797 -83.1567 339° North 389 448 37,000  Level Atlanta Center
08:49AM 33.3822 -83.2028 339° North 389 448 37,000  Level Atlanta Center
08:50AM 33.4808 -83.2517 338° Northwest 389 448 37,000  Level Atlanta Center
08:51AM 33.5811 -83.2983 339° North 384 442 37,000  Level Atlanta Center
08:52AM 33.6733 -83.3422 338° Northwest 384 442 37,000  Level Atlanta Center
08:53AM 33.7758 -83.3889 339° North 389 448 37,000  Level Atlanta Center
08:54AM 33.8764 -83.4383 338° Northwest 389 448 37,000  Level Atlanta Center
08:55AM 33.9789 -83.4878 338° Northwest 395 455 37,000  Level Atlanta Center
08:56AM 34.0833 -83.5372 339° North 395 455 37,000  Level Atlanta Center
08:57AM 34.1878 -83.5842 340° North 389 448 37,000  Level Atlanta Center
08:58AM 34.2903 -83.6364 337° Northwest 394 453 37,000  Level Atlanta Center
08:59AM 34.3928 -83.6864 338° Northwest 394 453 37,000  Level Atlanta Center
09:00AM 34.4950 -83.7339 339° North 394 453 37,000  Level Atlanta Center
09:01AM 34.6100 -83.7914 338° Northwest 400 460 37,000  Level Atlanta Center
09:02AM 34.7125 -83.8392 339° North 395 455 37,000  Level Atlanta Center
09:03AM 34.8147 -83.8944 336° Northwest 401 461 37,000  Level Atlanta Center
09:04AM 34.9169 -83.9450 338° Northwest 395 455 37,000  Level Atlanta Center
09:05AM 35.0214 -83.9956 338° Northwest 395 455 37,000  Level Atlanta Center
09:06AM 35.1278 -84.0464 339° North 400 460 37,000  Level Atlanta Center
09:07AM 35.2342 -84.1022 337° Northwest 400 460 37,000  Level Atlanta Center
09:08AM 35.3386 -84.1508 339° North 400 460 37,000 -300 Level Atlanta Center
09:09AM 35.4428 -84.2044 337° Northwest 400 460 36,500 -540 Descending Atlanta Center
09:10AM 35.5469 -84.2556 338° Northwest 400 460 36,000 -300 Descending Atlanta Center
09:11AM 35.6511 -84.3072 338° Northwest 400 460 36,000  Level Atlanta Center
09:12AM 35.7553 -84.3586 338° Northwest 400 460 36,000  Level Atlanta Center
09:13AM 35.8594 -84.4128 337° Northwest 400 460 36,000  Level Atlanta Center
09:16AM 36.1064 -84.5356 338° Northwest 397 457 36,000  Level Indianapolis Center
09:17AM 36.2072 -84.5869 338° Northwest 395 455 36,000  Level Indianapolis Center
09:18AM 36.3089 -84.6383 338° Northwest 396 456 36,000  Level Indianapolis Center
09:19AM 36.4292 -84.6997 338° Northwest 392 451 36,000  Level Indianapolis Center
09:20AM 36.5306 -84.7514 338° Northwest 392 451 36,000  Level Indianapolis Center
09:21AM 36.6325 -84.8042 337° Northwest 396 456 36,000  Level Indianapolis Center
09:22AM 36.7331 -84.8553 338° Northwest 392 451 36,000  Level Indianapolis Center
09:23AM 36.8353 -84.9100 337° Northwest 400 460 36,000  Level Indianapolis Center
09:24AM 36.9383 -84.9622 338° Northwest 400 460 36,000  Level Indianapolis Center
09:25AM 37.0567 -85.0231 338° Northwest 398 458 36,000  Level Indianapolis Center
09:26AM 37.1606 -85.0767 338° Northwest 401 461 36,000  Level Indianapolis Center
09:27AM 37.2636 -85.1308 337° Northwest 400 460 36,000  Level Indianapolis Center
09:28AM 37.3667 -85.1853 337° Northwest 401 461 36,000  Level Indianapolis Center
09:29AM 37.4706 -85.2397 337° Northwest 403 464 36,000  Level Indianapolis Center
09:30AM 37.5744 -85.2947 337° Northwest 402 463 36,000  Level Indianapolis Center
09:31AM 37.6758 -85.3503 337° Northwest 400 460 36,000 -300 Level Indianapolis Center
09:32AM 37.7797 -85.4042 338° Northwest 401 461 35,400 -840 Descending Indianapolis Center
09:33AM 37.8853 -85.4592 338° Northwest 400 460 34,300 -720 Descending Indianapolis Center
09:34AM 37.9875 -85.5125 338° Northwest 399 459 34,000 -1,140 Descending Indianapolis Center
09:35AM 38.1092 -85.5803 336° Northwest 397 457 32,000 -1,980 Descending Indianapolis Center
09:36AM 38.2119 -85.6361 337° Northwest 400 460 30,000 -1,920 Descending Indianapolis Center
09:37AM 38.3114 -85.6947 335° Northwest 395 455 28,100 -1,020 Descending Indianapolis Center
09:39AM 38.4133 -85.7533 336° Northwest 401 461 28,000 -60 Descending Indianapolis Center
09:40AM 38.5189 -85.8142 336° Northwest 413 475 28,000  Level Indianapolis Center
09:41AM 38.6231 -85.8736 336° Northwest 411 473 28,000  Level Indianapolis Center
09:42AM 38.7261 -85.9328 336° Northwest 407 468 28,000  Level Indianapolis Center
09:43AM 38.8292 -85.9928 336° Northwest 407 468 28,000 -960 Level Indianapolis Center
09:44AM 38.9494 -86.0636 335° Northwest 409 471 26,100 -1,860 Descending Indianapolis Center
09:45AM 39.0508 -86.1239 335° Northwest 404 465 24,200 -1,080 Descending Indianapolis Center
09:46AM 39.1528 -86.1825 336° Northwest 401 461 24,000 -120 Descending Indianapolis Center
09:47AM 39.2539 -86.2417 336° Northwest 401 461 24,000 -660 Level Indianapolis Center
09:48AM 39.3556 -86.3014 336° Northwest 400 460 22,700 -1,620 Descending Indianapolis Center
09:49AM 39.4519 -86.3575 336° Northwest 385 443 20,700 -2,160 Descending Indianapolis Center
09:50AM 39.5647 -86.4250 335° Northwest 371 427 18,300 -2,100 Descending Indianapolis Center
09:51AM 39.6567 -86.4808 335° Northwest 362 417 16,500 -1,620 Descending Indianapolis Center
09:52AM 39.7450 -86.5331 336° Northwest 347 399 15,000 -1,500 Descending Indianapolis Center
09:53AM 39.8294 -86.5836 335° Northwest 335 386 13,400 -1,560 Descending Indianapolis Center
09:54AM 39.9117 -86.6331 335° Northwest 327 376 11,900 -1,560 Descending Indianapolis Center
09:55AM 39.9797 -86.6733 336° Northwest 274 315 10,300 -1,680 Descending Indianapolis Center
09:56AM 40.0425 -86.7119 335° Northwest 253 291 8,500 -1,860 Descending Indianapolis Center
09:57AM 40.1061 -86.7497 336° Northwest 251 289 6,500 -1,980 Descending Indianapolis Center
09:58AM 40.1711 -86.7886 335° Northwest 255 293 4,500 -2,280 Descending Indianapolis Center
09:59AM 40.2317 -86.8153 341° North 247 284 2,400 -2,100 Descending Chicago Center
09:59AM 40.2225 -86.8178 192° South 254 292 2,900 -420 Climbing Chicago Center
10:00AM 40.2922 -86.8164 North 215 247 2,000 -780 Descending Chicago Center
10:00AM 40.2981 -86.8139 18° North 235 270 2,100 60 Climbing Chicago Center
10:01AM 40.3461 -86.8253 350° North 180 207 2,100 60 Level Chicago Center
10:01AM 40.3500 -86.8242 12° North 211 243 2,200 -120 Climbing Chicago Center
10:02AM 40.3872 -86.8472 335° Northwest 149 171 2,000 -480 Descending Chicago Center
10:03AM 40.4047 -86.8811 304° West 106 122 1,400 -720 Descending Chicago Center
10:05AM 40.4000 -86.9333 333° Northwest  Level FlightAware Approximate